This is the latest recevied weather packets stored in our database for station/object W4GAP. If no packets are shown the sender has not sent any weather packets the latest 1 day(s).
| Time | Temp. | Humidity | Pressure | Rain* | Wind** | Luminosity | Snow |
|---|---|---|---|---|---|---|---|
| 1778027190 | 22.78° C | 48% | 1010.5 hPa | 0 mm | - | 0 W/m² | - |
| 1778026886 | 22.78° C | 48% | 1010.3 hPa | 0 mm | - | 0 W/m² | - |
| 1778026582 | 22.78° C | 48% | 1010.3 hPa | 0 mm | - | 0 W/m² | - |
| 1778026280 | 22.78° C | 48% | 1010.2 hPa | 0 mm | - | 0 W/m² | - |
| 1778025977 | 22.78° C | 48% | 1010.1 hPa | 0 mm | - | 0 W/m² | - |
| 1778025069 | 23.89° C | 46% | 1010.6 hPa | 0 mm | - | 1 W/m² | - |
| 1778022648 | 24.44° C | 42% | 1010.1 hPa | 0 mm | - | 19 W/m² | - |
| 1778021738 | 24.44° C | 41% | 1010.8 hPa | 0 mm | - | 14 W/m² | - |
| 1778021434 | 24.44° C | 43% | 1010.5 hPa | 0 mm | - | 19 W/m² | - |
| 1778019918 | 25° C | 42% | 1010.5 hPa | 0 mm | - | 16 W/m² | - |
| 1778019614 | 25° C | 41% | 1010.6 hPa | 0 mm | - | 22 W/m² | - |
| 1778018705 | 25° C | 40% | 1010.2 hPa | 0 mm | - | 26 W/m² | - |
| 1778018101 | 25° C | 40% | 1010.3 hPa | 0 mm | - | 17 W/m² | - |
| 1778017193 | 25.56° C | 39% | 1010.9 hPa | 0 mm | - | 20 W/m² | - |
| 1778016891 | 25.56° C | 39% | 1010.7 hPa | 0 mm | - | 22 W/m² | - |
| 1778008709 | 25.56° C | 40% | 1011.7 hPa | 0 mm | - | 193 W/m² | - |
| 1778006282 | 25.56° C | 39% | 1012.3 hPa | 0 mm | - | 409 W/m² | - |
| 1778005676 | 26.11° C | 39% | 1012.3 hPa | 0 mm | - | 638 W/m² | - |
| 1778005069 | 26.67° C | 38% | 1012.3 hPa | 0 mm | - | 662 W/m² | - |
| 1778003856 | 25.56° C | 41% | 1013 hPa | 0 mm | - | 562 W/m² | - |
| 1778002946 | 25.56° C | 42% | 1013 hPa | 0 mm | - | 117 W/m² | - |
| 1778002642 | 25° C | 43% | 1013.1 hPa | 0 mm | - | 188 W/m² | - |
| 1778002036 | 26.67° C | 40% | 1013.1 hPa | 0 mm | - | 78 W/m² | - |
| 1778001733 | 26.11° C | 42% | 1012.9 hPa | 0 mm | - | 121 W/m² | - |
* Rain latest hour (hover to see other rain measurements)
** Current wind speed in m/s (hover to see current wind gust speed)